Time;durP1;ratioP1;P1;durP2;ratioP2;P2;SDS_P1;SDS_P2;PMS_P1;PMS_P2;Temp;Humidity;BMP_temperature;BMP_pressure;BME280_temperature;BME280_humidity;BME280_pressure;Samples;Min_cycle;Max_cycle;Signal;HPM_P1;HPM_P2
2021/08/19 00:01:06;;;;;;;4.97;4.47;;;16.00;86.60;;;;;;4840491;29;20233;-87
2021/08/19 00:03:37;;;;;;;6.20;4.17;;;16.00;86.80;;;;;;4841497;29;20212;-86
2021/08/19 00:06:15;;;;;;;6.50;4.10;;;16.00;86.80;;;;;;4842556;29;20291;-87
2021/08/19 00:08:44;;;;;;;6.67;4.03;;;16.00;86.90;;;;;;4842994;29;20705;-88
2021/08/19 00:11:23;;;;;;;5.57;4.50;;;16.00;86.90;;;;;;4839143;29;20212;-85
2021/08/19 00:13:53;;;;;;;6.17;4.50;;;16.00;87.00;;;;;;4849021;29;20225;-86
2021/08/19 00:16:25;;;;;;;7.13;4.57;;;16.00;87.10;;;;;;4845629;29;20665;-87
2021/08/19 00:18:54;;;;;;;4.67;3.97;;;16.00;87.10;;;;;;4841630;29;20710;-89
2021/08/19 00:21:23;;;;;;;5.63;4.10;;;16.10;87.20;;;;;;4840854;29;20213;-87
2021/08/19 00:23:52;;;;;;;5.83;4.53;;;16.10;87.20;;;;;;4840205;29;20210;-88
2021/08/19 00:26:22;;;;;;;6.27;4.00;;;16.10;87.50;;;;;;4837379;29;20216;-87
2021/08/19 00:28:51;;;;;;;5.37;4.03;;;16.10;87.60;;;;;;4840668;29;20212;-88
2021/08/19 00:31:24;;;;;;;6.03;4.23;;;16.00;87.70;;;;;;4838220;29;20258;-88
2021/08/19 00:34:05;;;;;;;8.93;4.23;;;16.00;87.70;;;;;;4847765;29;20208;-88
2021/08/19 00:36:50;;;;;;;4.47;4.07;;;16.10;88.00;;;;;;4842533;29;20785;-87
2021/08/19 00:39:19;;;;;;;4.27;3.87;;;16.10;88.10;;;;;;4855063;29;20224;-87
2021/08/19 00:41:49;;;;;;;5.27;4.37;;;16.00;88.00;;;;;;4847557;29;20213;-87
2021/08/19 00:44:18;;;;;;;5.27;4.17;;;16.00;88.10;;;;;;4840312;29;20216;-86
2021/08/19 00:46:49;;;;;;;4.90;4.10;;;16.10;88.10;;;;;;4849830;29;20210;-89
2021/08/19 00:49:27;;;;;;;4.47;4.07;;;16.00;88.20;;;;;;4859718;29;20237;-86
2021/08/19 00:51:58;;;;;;;6.00;4.40;;;16.00;88.40;;;;;;4846354;29;20276;-89
2021/08/19 00:54:50;;;;;;;4.53;3.90;;;16.10;88.40;;;;;;4843919;29;20362;-86
2021/08/19 00:57:33;;;;;;;7.53;4.30;;;16.10;88.40;;;;;;4845565;29;20205;-86
2021/08/19 01:00:17;;;;;;;5.73;4.13;;;16.00;88.70;;;;;;4841285;29;20236;-86
2021/08/19 01:03:03;;;;;;;4.57;3.97;;;16.00;88.80;;;;;;4836481;29;20216;-87
2021/08/19 01:05:35;;;;;;;6.20;4.13;;;16.00;89.00;;;;;;4850583;29;20216;-85
2021/08/19 01:08:05;;;;;;;4.87;4.23;;;16.00;89.20;;;;;;4865964;29;20202;-85
2021/08/19 01:10:34;;;;;;;4.70;3.83;;;15.90;89.20;;;;;;4854816;29;20212;-86
2021/08/19 01:13:04;;;;;;;4.50;4.07;;;16.00;89.40;;;;;;4865275;29;20217;-86
2021/08/19 01:15:44;;;;;;;4.33;3.93;;;15.90;89.40;;;;;;4852186;29;20216;-87
2021/08/19 01:18:14;;;;;;;4.57;3.60;;;15.90;89.50;;;;;;4858992;29;20273;-85
2021/08/19 01:20:43;;;;;;;6.07;4.03;;;15.90;89.60;;;;;;4854824;29;20233;-87
2021/08/19 01:23:12;;;;;;;5.17;4.07;;;15.90;89.60;;;;;;4854279;29;20212;-87
2021/08/19 01:25:47;;;;;;;7.50;3.90;;;15.90;89.70;;;;;;4838755;29;20228;-88
2021/08/19 01:28:24;;;;;;;5.07;3.73;;;15.90;89.60;;;;;;4847390;29;20201;-89
2021/08/19 01:30:53;;;;;;;4.33;3.63;;;15.90;89.70;;;;;;4841605;29;20209;-89
2021/08/19 01:33:25;;;;;;;4.77;3.87;;;15.80;89.90;;;;;;4848206;29;20212;-86
2021/08/19 01:35:54;;;;;;;4.70;4.10;;;15.80;90.00;;;;;;4848237;29;20229;-84
2021/08/19 01:38:30;;;;;;;4.13;3.73;;;15.80;90.00;;;;;;4859942;29;20296;-87
2021/08/19 01:41:03;;;;;;;5.57;3.67;;;15.80;90.10;;;;;;4865435;29;20244;-87
2021/08/19 01:43:37;;;;;;;4.10;3.63;;;15.60;90.20;;;;;;4856842;29;20248;-87
2021/08/19 01:46:07;;;;;;;4.57;4.13;;;15.70;90.20;;;;;;4866126;29;20240;-86
2021/08/19 01:48:38;;;;;;;4.20;3.80;;;15.60;90.30;;;;;;4857385;29;20272;-87
2021/08/19 01:51:09;;;;;;;5.07;3.80;;;15.60;90.40;;;;;;4860403;29;20189;-87
2021/08/19 01:53:48;;;;;;;4.13;3.73;;;15.60;90.60;;;;;;4856590;29;20205;-88
2021/08/19 01:56:19;;;;;;;4.30;3.90;;;15.60;90.60;;;;;;4859023;29;20203;-88
2021/08/19 01:58:53;;;;;;;5.73;3.50;;;15.60;90.70;;;;;;4856464;29;20208;-85
2021/08/19 02:01:34;;;;;;;4.57;3.73;;;15.60;90.60;;;;;;4837219;29;20244;-88
2021/08/19 02:04:12;;;;;;;4.50;4.00;;;15.60;90.70;;;;;;4848924;29;20217;-87
2021/08/19 02:06:52;;;;;;;4.40;4.00;;;15.60;90.70;;;;;;4851796;29;20296;-86
2021/08/19 02:09:29;;;;;;;4.10;3.20;;;15.50;90.80;;;;;;4852810;29;20554;-88
2021/08/19 02:12:03;;;;;;;5.13;3.83;;;15.50;91.10;;;;;;4850520;29;20801;-87
2021/08/19 02:14:38;;;;;;;4.80;3.90;;;15.40;91.10;;;;;;4845066;29;20327;-85
2021/08/19 02:17:12;;;;;;;4.20;3.80;;;15.40;91.40;;;;;;4842814;29;20248;-86
2021/08/19 02:19:43;;;;;;;5.97;3.80;;;15.30;91.50;;;;;;4839231;29;20210;-88
2021/08/19 02:22:16;;;;;;;4.93;3.90;;;15.30;91.70;;;;;;4844315;29;20689;-86
2021/08/19 02:24:52;;;;;;;5.97;4.37;;;15.20;91.80;;;;;;4834572;29;20345;-87
2021/08/19 02:27:22;;;;;;;3.70;3.40;;;15.20;91.90;;;;;;4836458;29;20305;-88
2021/08/19 02:29:52;;;;;;;4.80;3.70;;;15.20;91.90;;;;;;4854703;29;20212;-86
2021/08/19 02:32:27;;;;;;;4.00;3.67;;;15.20;92.10;;;;;;4850606;29;20542;-87
2021/08/19 02:34:58;;;;;;;4.23;3.83;;;15.10;92.30;;;;;;4847453;29;20213;-84
2021/08/19 02:37:27;;;;;;;4.47;4.07;;;15.10;92.30;;;;;;4842824;29;20256;-84
2021/08/19 02:39:56;;;;;;;4.70;4.13;;;15.10;92.60;;;;;;4844341;29;20218;-85
2021/08/19 02:42:28;;;;;;;6.90;4.10;;;15.00;92.70;;;;;;4843891;29;20217;-89
2021/08/19 02:45:04;;;;;;;5.93;3.77;;;15.00;93.00;;;;;;4849410;29;20220;-87
2021/08/19 02:47:36;;;;;;;5.13;4.60;;;15.00;93.00;;;;;;4838919;29;20538;-87
2021/08/19 02:50:06;;;;;;;4.70;4.20;;;15.00;93.00;;;;;;4853327;29;20212;-87
2021/08/19 02:52:44;;;;;;;4.43;4.00;;;15.00;93.10;;;;;;4847737;29;20212;-85
2021/08/19 02:55:14;;;;;;;7.57;4.23;;;15.00;93.10;;;;;;4851457;29;20236;-87
2021/08/19 02:57:42;;;;;;;5.57;4.03;;;15.10;93.00;;;;;;4855500;29;20286;-86
2021/08/19 03:00:16;;;;;;;4.17;3.77;;;15.10;93.20;;;;;;4861471;29;20250;-88
2021/08/19 03:02:52;;;;;;;5.00;4.50;;;15.10;93.20;;;;;;4859730;29;20261;-86
2021/08/19 03:05:22;;;;;;;4.50;4.10;;;15.10;93.00;;;;;;4869049;29;20208;-85
2021/08/19 03:07:51;;;;;;;6.07;3.77;;;15.10;92.90;;;;;;4860330;29;20197;-86
2021/08/19 03:10:19;;;;;;;6.23;4.60;;;15.10;93.10;;;;;;4858995;29;20215;-88
2021/08/19 03:12:50;;;;;;;4.70;4.13;;;15.00;93.10;;;;;;4854085;29;20228;-90
2021/08/19 03:15:21;;;;;;;6.70;4.50;;;15.00;93.40;;;;;;4851308;29;20237;-89
2021/08/19 03:17:50;;;;;;;6.03;4.90;;;14.90;93.60;;;;;;4857167;29;20190;-86
2021/08/19 03:20:19;;;;;;;5.90;4.10;;;14.80;93.80;;;;;;4854422;29;20197;-88
2021/08/19 03:22:51;;;;;;;6.03;4.40;;;14.80;94.10;;;;;;4860275;29;20189;-87
2021/08/19 03:25:24;;;;;;;6.33;4.50;;;14.70;94.40;;;;;;4860024;29;20376;-88
2021/08/19 03:28:02;;;;;;;4.80;4.30;;;14.60;94.80;;;;;;4848804;29;20221;-86
2021/08/19 03:30:32;;;;;;;5.13;4.40;;;14.60;94.90;;;;;;4836550;29;20316;-86
2021/08/19 03:33:04;;;;;;;5.43;4.47;;;14.60;95.20;;;;;;4838304;29;20220;-87
2021/08/19 03:35:33;;;;;;;7.03;4.70;;;14.50;95.50;;;;;;4845832;29;20189;-88
2021/08/19 03:38:02;;;;;;;4.80;4.30;;;14.50;95.70;;;;;;4839529;29;20328;-86
2021/08/19 03:40:33;;;;;;;6.70;4.97;;;14.50;95.80;;;;;;4837872;29;20252;-85
2021/08/19 03:43:05;;;;;;;5.13;4.50;;;14.40;96.10;;;;;;4840869;29;20209;-88
2021/08/19 03:45:38;;;;;;;5.17;4.37;;;14.40;96.30;;;;;;4838839;29;20209;-88
2021/08/19 03:48:07;;;;;;;4.40;4.00;;;14.40;96.50;;;;;;4844016;29;20255;-85
2021/08/19 03:50:36;;;;;;;5.60;5.00;;;14.40;96.60;;;;;;4844235;29;20265;-87
2021/08/19 03:53:16;;;;;;;5.43;4.90;;;14.30;96.80;;;;;;4838864;29;20217;-86
2021/08/19 03:55:55;;;;;;;5.37;4.30;;;14.30;96.90;;;;;;4837377;29;20213;-86
2021/08/19 03:58:25;;;;;;;7.63;4.87;;;14.40;97.30;;;;;;4841949;29;20229;-85
2021/08/19 04:00:58;;;;;;;4.80;4.40;;;14.30;97.40;;;;;;4843629;29;20230;-88
2021/08/19 04:03:31;;;;;;;4.60;4.07;;;14.30;97.40;;;;;;4839121;29;20223;-87
2021/08/19 04:06:00;;;;;;;5.53;4.60;;;14.40;97.60;;;;;;4844303;29;20208;-88
2021/08/19 04:08:29;;;;;;;5.47;4.60;;;14.40;97.40;;;;;;4840516;29;20210;-85
2021/08/19 04:10:58;;;;;;;5.83;4.70;;;14.40;97.30;;;;;;4843499;29;20586;-89
2021/08/19 04:13:30;;;;;;;6.07;5.00;;;14.50;97.10;;;;;;4852679;29;20327;-87
2021/08/19 04:16:01;;;;;;;5.20;4.20;;;14.60;96.90;;;;;;4848322;29;20221;-87
2021/08/19 04:18:33;;;;;;;7.10;5.10;;;14.70;96.30;;;;;;4851273;29;20196;-87
2021/08/19 04:21:07;;;;;;;4.83;4.13;;;14.80;95.90;;;;;;4838727;29;20327;-87
2021/08/19 04:23:36;;;;;;;5.70;4.07;;;14.80;95.50;;;;;;4838480;29;20272;-86
